sensor_id;sensor_type;location;lat;lon;timestamp;pressure;altitude;pressure_sealevel;temperature;humidity
64453;BME280;50813;52.654;6.766;2023-05-08T00:00:31;102088.0;;;13.34;94.84
64453;BME280;50813;52.654;6.766;2023-05-08T00:02:07;102089.0;;;13.2;94.93
64453;BME280;50813;52.654;6.766;2023-05-08T00:03:44;102090.0;;;13.22;94.34
64453;BME280;50813;52.654;6.766;2023-05-08T00:06:57;102090.0;;;13.26;94.93
64453;BME280;50813;52.654;6.766;2023-05-08T00:08:34;102085.0;;;13.34;93.98
64453;BME280;50813;52.654;6.766;2023-05-08T00:10:11;102090.0;;;12.95;94.96
64453;BME280;50813;52.654;6.766;2023-05-08T00:13:24;102087.0;;;13.08;95.7
64453;BME280;50813;52.654;6.766;2023-05-08T00:15:00;102084.0;;;13.0;95.37
64453;BME280;50813;52.654;6.766;2023-05-08T00:16:37;102086.0;;;12.94;95.41
64453;BME280;50813;52.654;6.766;2023-05-08T00:18:13;102087.0;;;13.03;95.27
64453;BME280;50813;52.654;6.766;2023-05-08T00:21:28;102085.0;;;13.07;94.06
64453;BME280;50813;52.654;6.766;2023-05-08T00:23:05;102080.0;;;12.97;94.12
64453;BME280;50813;52.654;6.766;2023-05-08T00:24:41;102083.0;;;12.89;94.09
64453;BME280;50813;52.654;6.766;2023-05-08T00:27:53;102081.0;;;13.04;93.4
64453;BME280;50813;52.654;6.766;2023-05-08T00:29:29;102084.0;;;13.03;92.99
64453;BME280;50813;52.654;6.766;2023-05-08T00:31:05;102082.0;;;12.76;94.75
64453;BME280;50813;52.654;6.766;2023-05-08T00:34:17;102085.0;;;12.87;93.91
64453;BME280;50813;52.654;6.766;2023-05-08T00:35:58;102082.0;;;12.83;93.46
64453;BME280;50813;52.654;6.766;2023-05-08T00:37:35;102078.0;;;12.73;93.08
64453;BME280;50813;52.654;6.766;2023-05-08T00:39:11;102076.0;;;12.65;93.53
64453;BME280;50813;52.654;6.766;2023-05-08T00:42:24;102077.0;;;12.74;94.49
64453;BME280;50813;52.654;6.766;2023-05-08T00:44:00;102077.0;;;12.73;94.83
64453;BME280;50813;52.654;6.766;2023-05-08T00:45:38;102083.0;;;12.88;94.02
64453;BME280;50813;52.654;6.766;2023-05-08T00:48:52;102080.0;;;12.75;93.65
64453;BME280;50813;52.654;6.766;2023-05-08T00:50:29;102087.0;;;12.89;93.6
64453;BME280;50813;52.654;6.766;2023-05-08T00:52:06;102084.0;;;12.95;92.3
64453;BME280;50813;52.654;6.766;2023-05-08T00:55:20;102084.0;;;12.78;93.18
64453;BME280;50813;52.654;6.766;2023-05-08T00:56:59;102087.0;;;12.98;93.21
64453;BME280;50813;52.654;6.766;2023-05-08T00:58:36;102088.0;;;12.82;92.28
64453;BME280;50813;52.654;6.766;2023-05-08T01:00:14;102085.0;;;12.69;92.49
64453;BME280;50813;52.654;6.766;2023-05-08T01:03:31;102084.0;;;12.65;92.68
64453;BME280;50813;52.654;6.766;2023-05-08T01:05:08;102087.0;;;12.74;93.11
64453;BME280;50813;52.654;6.766;2023-05-08T01:06:45;102081.0;;;12.69;93.81
64453;BME280;50813;52.654;6.766;2023-05-08T01:09:57;102076.0;;;12.35;94.08
64453;BME280;50813;52.654;6.766;2023-05-08T01:11:38;102080.0;;;12.61;93.66
64453;BME280;50813;52.654;6.766;2023-05-08T01:13:37;102081.0;;;12.63;93.55
64453;BME280;50813;52.654;6.766;2023-05-08T01:15:27;102078.0;;;12.4;94.34
64453;BME280;50813;52.654;6.766;2023-05-08T01:17:15;102081.0;;;12.5;93.94
64453;BME280;50813;52.654;6.766;2023-05-08T01:18:58;102080.0;;;12.38;93.82
64453;BME280;50813;52.654;6.766;2023-05-08T01:24:14;102084.0;;;12.4;93.82
64453;BME280;50813;52.654;6.766;2023-05-08T01:26:13;102083.0;;;12.55;93.5
64453;BME280;50813;52.654;6.766;2023-05-08T01:28:12;102078.0;;;12.4;93.37
64453;BME280;50813;52.654;6.766;2023-05-08T01:32:01;102075.0;;;12.18;94.15
64453;BME280;50813;52.654;6.766;2023-05-08T01:33:50;102077.0;;;12.0;95.07
64453;BME280;50813;52.654;6.766;2023-05-08T01:37:25;102080.0;;;12.03;95.16
64453;BME280;50813;52.654;6.766;2023-05-08T01:39:16;102081.0;;;12.06;95.05
64453;BME280;50813;52.654;6.766;2023-05-08T01:41:00;102077.0;;;12.28;94.43
64453;BME280;50813;52.654;6.766;2023-05-08T01:42:57;102081.0;;;12.17;94.09
64453;BME280;50813;52.654;6.766;2023-05-08T01:44:44;102075.0;;;12.28;93.69
64453;BME280;50813;52.654;6.766;2023-05-08T01:46:26;102076.0;;;12.02;95.88
64453;BME280;50813;52.654;6.766;2023-05-08T01:49:45;102084.0;;;12.13;94.94
64453;BME280;50813;52.654;6.766;2023-05-08T01:51:26;102081.0;;;12.01;95.13
64453;BME280;50813;52.654;6.766;2023-05-08T01:53:08;102084.0;;;12.16;94.38
64453;BME280;50813;52.654;6.766;2023-05-08T01:54:50;102080.0;;;12.26;93.39
64453;BME280;50813;52.654;6.766;2023-05-08T01:56:46;102087.0;;;11.85;94.74
64453;BME280;50813;52.654;6.766;2023-05-08T02:00:04;102088.0;;;11.86;95.96
64453;BME280;50813;52.654;6.766;2023-05-08T02:01:43;102091.0;;;11.82;94.67
64453;BME280;50813;52.654;6.766;2023-05-08T02:03:23;102088.0;;;11.75;95.47
64453;BME280;50813;52.654;6.766;2023-05-08T02:05:01;102084.0;;;11.93;95.04
64453;BME280;50813;52.654;6.766;2023-05-08T02:08:17;102078.0;;;11.98;95.3
64453;BME280;50813;52.654;6.766;2023-05-08T02:09:56;102080.0;;;11.8;95.85
64453;BME280;50813;52.654;6.766;2023-05-08T02:11:35;102075.0;;;11.62;97.34
64453;BME280;50813;52.654;6.766;2023-05-08T02:14:51;102078.0;;;11.62;96.93
64453;BME280;50813;52.654;6.766;2023-05-08T02:16:29;102080.0;;;11.63;97.26
64453;BME280;50813;52.654;6.766;2023-05-08T02:18:07;102077.0;;;11.9;96.21
64453;BME280;50813;52.654;6.766;2023-05-08T02:19:45;102078.0;;;11.88;95.76
64453;BME280;50813;52.654;6.766;2023-05-08T02:23:01;102077.0;;;11.84;96.66
64453;BME280;50813;52.654;6.766;2023-05-08T02:24:38;102080.0;;;11.83;95.88
64453;BME280;50813;52.654;6.766;2023-05-08T02:26:17;102082.0;;;11.92;95.56
64453;BME280;50813;52.654;6.766;2023-05-08T02:29:31;102073.0;;;11.84;95.48
64453;BME280;50813;52.654;6.766;2023-05-08T02:31:10;102080.0;;;11.56;96.21
64453;BME280;50813;52.654;6.766;2023-05-08T02:32:48;102077.0;;;11.42;97.73
64453;BME280;50813;52.654;6.766;2023-05-08T02:34:26;102070.0;;;11.52;97.18
64453;BME280;50813;52.654;6.766;2023-05-08T02:37:44;102080.0;;;11.52;96.82
64453;BME280;50813;52.654;6.766;2023-05-08T02:39:25;102072.0;;;11.48;97.12
64453;BME280;50813;52.654;6.766;2023-05-08T02:41:06;102077.0;;;11.41;96.88
64453;BME280;50813;52.654;6.766;2023-05-08T02:42:45;102077.0;;;11.4;97.27
64453;BME280;50813;52.654;6.766;2023-05-08T02:46:08;102080.0;;;11.53;96.72
64453;BME280;50813;52.654;6.766;2023-05-08T02:47:52;102083.0;;;11.29;97.18
64453;BME280;50813;52.654;6.766;2023-05-08T02:49:42;102087.0;;;11.42;96.75
64453;BME280;50813;52.654;6.766;2023-05-08T02:51:25;102089.0;;;11.46;96.21
64453;BME280;50813;52.654;6.766;2023-05-08T02:53:07;102088.0;;;11.49;96.46
64453;BME280;50813;52.654;6.766;2023-05-08T02:56:38;102090.0;;;11.48;96.3
64453;BME280;50813;52.654;6.766;2023-05-08T02:58:18;102090.0;;;11.61;95.69
64453;BME280;50813;52.654;6.766;2023-05-08T03:00:02;102087.0;;;11.39;96.48
64453;BME280;50813;52.654;6.766;2023-05-08T03:01:46;102095.0;;;11.57;96.04
64453;BME280;50813;52.654;6.766;2023-05-08T03:05:13;102090.0;;;11.35;97.32
64453;BME280;50813;52.654;6.766;2023-05-08T03:06:53;102093.0;;;11.59;96.16
64453;BME280;50813;52.654;6.766;2023-05-08T03:08:34;102088.0;;;11.41;97.26
64453;BME280;50813;52.654;6.766;2023-05-08T03:10:12;102092.0;;;11.51;96.83
64453;BME280;50813;52.654;6.766;2023-05-08T03:13:37;102094.0;;;11.48;96.95
64453;BME280;50813;52.654;6.766;2023-05-08T03:15:20;102100.0;;;11.4;97.75
64453;BME280;50813;52.654;6.766;2023-05-08T03:17:05;102102.0;;;11.45;97.29
64453;BME280;50813;52.654;6.766;2023-05-08T03:18:48;102102.0;;;11.35;97.38
64453;BME280;50813;52.654;6.766;2023-05-08T03:20:30;102105.0;;;11.33;97.63
64453;BME280;50813;52.654;6.766;2023-05-08T03:23:50;102100.0;;;11.24;97.68
64453;BME280;50813;52.654;6.766;2023-05-08T03:25:28;102092.0;;;11.13;98.33
64453;BME280;50813;52.654;6.766;2023-05-08T03:27:07;102091.0;;;11.1;98.81
64453;BME280;50813;52.654;6.766;2023-05-08T03:28:46;102092.0;;;11.14;98.18
64453;BME280;50813;52.654;6.766;2023-05-08T03:32:02;102096.0;;;11.14;97.87
64453;BME280;50813;52.654;6.766;2023-05-08T03:33:40;102098.0;;;11.2;98.01
64453;BME280;50813;52.654;6.766;2023-05-08T03:35:18;102098.0;;;11.15;98.07
64453;BME280;50813;52.654;6.766;2023-05-08T03:38:33;102100.0;;;11.26;97.59
64453;BME280;50813;52.654;6.766;2023-05-08T03:40:11;102106.0;;;11.22;98.32
64453;BME280;50813;52.654;6.766;2023-05-08T03:41:48;102103.0;;;11.21;98.65
64453;BME280;50813;52.654;6.766;2023-05-08T03:43:25;102099.0;;;11.07;98.95
64453;BME280;50813;52.654;6.766;2023-05-08T03:46:44;102097.0;;;11.2;98.81
64453;BME280;50813;52.654;6.766;2023-05-08T03:48:23;102099.0;;;11.23;98.29
64453;BME280;50813;52.654;6.766;2023-05-08T03:50:01;102099.0;;;11.05;100.0
64453;BME280;50813;52.654;6.766;2023-05-08T03:51:39;102098.0;;;10.94;100.0
64453;BME280;50813;52.654;6.766;2023-05-08T03:54:53;102093.0;;;11.01;100.0
64453;BME280;50813;52.654;6.766;2023-05-08T03:56:30;102089.0;;;11.07;100.0
64453;BME280;50813;52.654;6.766;2023-05-08T03:58:12;102087.0;;;11.23;99.23
64453;BME280;50813;52.654;6.766;2023-05-08T04:00:06;102084.0;;;11.12;99.29
64453;BME280;50813;52.654;6.766;2023-05-08T04:03:39;102080.0;;;10.94;99.96
64453;BME280;50813;52.654;6.766;2023-05-08T04:05:30;102080.0;;;10.99;99.84
64453;BME280;50813;52.654;6.766;2023-05-08T04:07:12;102082.0;;;11.0;100.0
64453;BME280;50813;52.654;6.766;2023-05-08T04:08:54;102084.0;;;10.82;100.0
64453;BME280;50813;52.654;6.766;2023-05-08T04:10:43;102080.0;;;10.81;100.0
64453;BME280;50813;52.654;6.766;2023-05-08T04:14:17;102080.0;;;10.83;100.0
64453;BME280;50813;52.654;6.766;2023-05-08T04:16:03;102078.0;;;11.07;99.57
64453;BME280;50813;52.654;6.766;2023-05-08T04:17:42;102080.0;;;11.17;98.73
64453;BME280;50813;52.654;6.766;2023-05-08T04:19:23;102080.0;;;10.88;99.2
64453;BME280;50813;52.654;6.766;2023-05-08T04:21:07;102080.0;;;11.13;98.56
64453;BME280;50813;52.654;6.766;2023-05-08T04:24:26;102082.0;;;11.05;98.28
64453;BME280;50813;52.654;6.766;2023-05-08T04:26:04;102080.0;;;11.04;98.92
64453;BME280;50813;52.654;6.766;2023-05-08T04:27:42;102080.0;;;11.16;98.43
64453;BME280;50813;52.654;6.766;2023-05-08T04:29:19;102081.0;;;11.13;98.72
64453;BME280;50813;52.654;6.766;2023-05-08T04:32:34;102087.0;;;11.26;98.28
64453;BME280;50813;52.654;6.766;2023-05-08T04:34:12;102084.0;;;11.33;98.21
64453;BME280;50813;52.654;6.766;2023-05-08T04:35:49;102086.0;;;11.34;97.52
64453;BME280;50813;52.654;6.766;2023-05-08T04:39:03;102084.0;;;11.34;97.5
64453;BME280;50813;52.654;6.766;2023-05-08T04:40:39;102085.0;;;11.31;97.69
64453;BME280;50813;52.654;6.766;2023-05-08T04:42:15;102080.0;;;11.28;97.53
64453;BME280;50813;52.654;6.766;2023-05-08T04:45:28;102074.0;;;11.05;98.63
64453;BME280;50813;52.654;6.766;2023-05-08T04:47:04;102081.0;;;11.32;98.17
64453;BME280;50813;52.654;6.766;2023-05-08T04:48:40;102080.0;;;11.35;97.74
64453;BME280;50813;52.654;6.766;2023-05-08T04:50:17;102081.0;;;11.4;97.03
64453;BME280;50813;52.654;6.766;2023-05-08T04:53:30;102086.0;;;11.42;96.5
64453;BME280;50813;52.654;6.766;2023-05-08T04:55:07;102087.0;;;11.46;97.37
64453;BME280;50813;52.654;6.766;2023-05-08T04:56:44;102085.0;;;11.37;97.48
64453;BME280;50813;52.654;6.766;2023-05-08T04:59:56;102086.0;;;11.07;98.61
64453;BME280;50813;52.654;6.766;2023-05-08T05:01:32;102086.0;;;11.23;98.95
64453;BME280;50813;52.654;6.766;2023-05-08T05:03:09;102085.0;;;11.22;97.99
64453;BME280;50813;52.654;6.766;2023-05-08T05:06:21;102083.0;;;11.17;98.52
64453;BME280;50813;52.654;6.766;2023-05-08T05:07:57;102086.0;;;11.2;98.71
64453;BME280;50813;52.654;6.766;2023-05-08T05:09:33;102088.0;;;11.11;99.39
64453;BME280;50813;52.654;6.766;2023-05-08T05:11:09;102092.0;;;10.95;99.79
64453;BME280;50813;52.654;6.766;2023-05-08T05:14:22;102100.0;;;11.23;99.5
64453;BME280;50813;52.654;6.766;2023-05-08T05:15:58;102098.0;;;11.34;98.42
64453;BME280;50813;52.654;6.766;2023-05-08T05:17:34;102103.0;;;11.13;98.4
64453;BME280;50813;52.654;6.766;2023-05-08T05:20:46;102107.0;;;11.43;98.1
64453;BME280;50813;52.654;6.766;2023-05-08T05:22:22;102109.0;;;11.42;97.72
64453;BME280;50813;52.654;6.766;2023-05-08T05:23:58;102112.0;;;11.29;98.67
64453;BME280;50813;52.654;6.766;2023-05-08T05:27:11;102114.0;;;11.38;99.5
64453;BME280;50813;52.654;6.766;2023-05-08T05:28:47;102114.0;;;11.22;99.73
64453;BME280;50813;52.654;6.766;2023-05-08T05:30:23;102114.0;;;11.22;99.53
64453;BME280;50813;52.654;6.766;2023-05-08T05:33:36;102111.0;;;11.28;100.0
64453;BME280;50813;52.654;6.766;2023-05-08T05:35:14;102103.0;;;11.24;99.72
64453;BME280;50813;52.654;6.766;2023-05-08T05:36:51;102106.0;;;11.34;99.82
64453;BME280;50813;52.654;6.766;2023-05-08T05:38:27;102110.0;;;11.35;100.0
64453;BME280;50813;52.654;6.766;2023-05-08T05:41:40;102111.0;;;11.63;99.08
64453;BME280;50813;52.654;6.766;2023-05-08T05:43:15;102113.0;;;11.65;98.78
64453;BME280;50813;52.654;6.766;2023-05-08T05:44:51;102111.0;;;11.71;97.62
64453;BME280;50813;52.654;6.766;2023-05-08T05:48:04;102107.0;;;11.75;96.29
64453;BME280;50813;52.654;6.766;2023-05-08T05:49:40;102114.0;;;11.86;96.36
64453;BME280;50813;52.654;6.766;2023-05-08T05:51:16;102112.0;;;12.1;96.2
64453;BME280;50813;52.654;6.766;2023-05-08T05:54:28;102114.0;;;12.42;94.67
64453;BME280;50813;52.654;6.766;2023-05-08T05:56:05;102115.0;;;12.41;94.27
64453;BME280;50813;52.654;6.766;2023-05-08T05:57:41;102116.0;;;12.64;92.94
64453;BME280;50813;52.654;6.766;2023-05-08T05:59:17;102118.0;;;12.64;91.67
64453;BME280;50813;52.654;6.766;2023-05-08T06:02:30;102116.0;;;12.6;91.14
64453;BME280;50813;52.654;6.766;2023-05-08T06:04:06;102122.0;;;12.55;91.14
64453;BME280;50813;52.654;6.766;2023-05-08T06:05:42;102123.0;;;12.62;90.73
64453;BME280;50813;52.654;6.766;2023-05-08T06:08:54;102130.0;;;12.79;89.87
64453;BME280;50813;52.654;6.766;2023-05-08T06:10:30;102130.0;;;13.02;88.68
64453;BME280;50813;52.654;6.766;2023-05-08T06:12:07;102136.0;;;13.13;88.66
64453;BME280;50813;52.654;6.766;2023-05-08T06:15:19;102136.0;;;13.17;88.49
64453;BME280;50813;52.654;6.766;2023-05-08T06:16:57;102137.0;;;13.13;88.5
64453;BME280;50813;52.654;6.766;2023-05-08T06:18:33;102135.0;;;13.32;88.4
64453;BME280;50813;52.654;6.766;2023-05-08T06:20:10;102136.0;;;13.66;87.57
64453;BME280;50813;52.654;6.766;2023-05-08T06:23:22;102140.0;;;13.73;86.31
64453;BME280;50813;52.654;6.766;2023-05-08T06:24:58;102145.0;;;13.86;85.79
64453;BME280;50813;52.654;6.766;2023-05-08T06:26:34;102145.0;;;14.0;86.52
64453;BME280;50813;52.654;6.766;2023-05-08T06:29:46;102141.0;;;13.91;84.56
64453;BME280;50813;52.654;6.766;2023-05-08T06:31:22;102143.0;;;13.97;83.61
64453;BME280;50813;52.654;6.766;2023-05-08T06:32:58;102136.0;;;14.22;83.66
64453;BME280;50813;52.654;6.766;2023-05-08T06:36:11;102134.0;;;14.4;83.96
64453;BME280;50813;52.654;6.766;2023-05-08T06:37:48;102128.0;;;14.27;82.43
64453;BME280;50813;52.654;6.766;2023-05-08T06:39:24;102128.0;;;14.29;81.5
64453;BME280;50813;52.654;6.766;2023-05-08T06:42:36;102122.0;;;14.44;82.54
64453;BME280;50813;52.654;6.766;2023-05-08T06:44:12;102124.0;;;14.69;81.86
64453;BME280;50813;52.654;6.766;2023-05-08T06:45:48;102126.0;;;14.75;80.02
64453;BME280;50813;52.654;6.766;2023-05-08T06:47:25;102123.0;;;14.79;80.86
64453;BME280;50813;52.654;6.766;2023-05-08T06:50:37;102121.0;;;14.87;80.91
64453;BME280;50813;52.654;6.766;2023-05-08T06:52:14;102127.0;;;15.15;80.91
64453;BME280;50813;52.654;6.766;2023-05-08T06:53:50;102122.0;;;15.32;81.77
64453;BME280;50813;52.654;6.766;2023-05-08T06:57:02;102124.0;;;15.52;80.41
64453;BME280;50813;52.654;6.766;2023-05-08T06:58:38;102120.0;;;15.65;79.28
64453;BME280;50813;52.654;6.766;2023-05-08T07:00:15;102122.0;;;15.8;78.97
64453;BME280;50813;52.654;6.766;2023-05-08T07:03:27;102123.0;;;16.03;77.92
64453;BME280;50813;52.654;6.766;2023-05-08T07:05:04;102126.0;;;16.11;78.97
64453;BME280;50813;52.654;6.766;2023-05-08T07:06:40;102122.0;;;16.28;77.45
64453;BME280;50813;52.654;6.766;2023-05-08T07:11:29;102124.0;;;16.68;74.7
64453;BME280;50813;52.654;6.766;2023-05-08T07:13:05;102131.0;;;16.71;72.73
64453;BME280;50813;52.654;6.766;2023-05-08T07:14:41;102126.0;;;16.72;71.84
64453;BME280;50813;52.654;6.766;2023-05-08T07:19:29;102132.0;;;17.16;71.22
64453;BME280;50813;52.654;6.766;2023-05-08T07:21:06;102127.0;;;17.05;72.5
64453;BME280;50813;52.654;6.766;2023-05-08T07:24:18;102130.0;;;17.16;72.08
64453;BME280;50813;52.654;6.766;2023-05-08T07:25:54;102128.0;;;17.09;73.48
64453;BME280;50813;52.654;6.766;2023-05-08T07:27:30;102127.0;;;17.45;74.12
64453;BME280;50813;52.654;6.766;2023-05-08T07:30:43;102127.0;;;17.5;70.91
64453;BME280;50813;52.654;6.766;2023-05-08T07:32:19;102127.0;;;17.66;68.63
64453;BME280;50813;52.654;6.766;2023-05-08T07:33:55;102126.0;;;17.75;68.8
64453;BME280;50813;52.654;6.766;2023-05-08T07:35:32;102127.0;;;17.84;71.14
64453;BME280;50813;52.654;6.766;2023-05-08T07:38:44;102122.0;;;18.09;72.78
64453;BME280;50813;52.654;6.766;2023-05-08T07:40:20;102119.0;;;18.03;68.95
64453;BME280;50813;52.654;6.766;2023-05-08T07:41:56;102118.0;;;18.27;69.41
64453;BME280;50813;52.654;6.766;2023-05-08T07:45:10;102120.0;;;18.25;67.67
64453;BME280;50813;52.654;6.766;2023-05-08T07:46:48;102121.0;;;18.37;67.0
64453;BME280;50813;52.654;6.766;2023-05-08T07:48:24;102121.0;;;18.52;66.88
64453;BME280;50813;52.654;6.766;2023-05-08T07:51:36;102120.0;;;18.5;68.83
64453;BME280;50813;52.654;6.766;2023-05-08T07:53:12;102124.0;;;18.77;67.19
64453;BME280;50813;52.654;6.766;2023-05-08T07:54:48;102118.0;;;18.52;65.97
64453;BME280;50813;52.654;6.766;2023-05-08T07:56:25;102120.0;;;18.5;67.41
64453;BME280;50813;52.654;6.766;2023-05-08T07:59:37;102122.0;;;18.77;67.99
64453;BME280;50813;52.654;6.766;2023-05-08T08:01:13;102119.0;;;18.84;66.89
64453;BME280;50813;52.654;6.766;2023-05-08T08:02:49;102115.0;;;19.0;65.45
64453;BME280;50813;52.654;6.766;2023-05-08T08:06:02;102118.0;;;19.16;66.56
64453;BME280;50813;52.654;6.766;2023-05-08T08:07:37;102116.0;;;19.06;65.69
64453;BME280;50813;52.654;6.766;2023-05-08T08:09:13;102114.0;;;19.37;63.8
64453;BME280;50813;52.654;6.766;2023-05-08T08:12:27;102112.0;;;19.27;63.64
64453;BME280;50813;52.654;6.766;2023-05-08T08:14:03;102113.0;;;19.21;63.33
64453;BME280;50813;52.654;6.766;2023-05-08T08:15:39;102114.0;;;19.41;65.37
64453;BME280;50813;52.654;6.766;2023-05-08T08:18:53;102116.0;;;19.45;66.12
64453;BME280;50813;52.654;6.766;2023-05-08T08:20:29;102118.0;;;19.68;64.41
64453;BME280;50813;52.654;6.766;2023-05-08T08:22:05;102118.0;;;19.43;62.09
64453;BME280;50813;52.654;6.766;2023-05-08T08:23:41;102117.0;;;19.39;63.35
64453;BME280;50813;52.654;6.766;2023-05-08T08:26:53;102112.0;;;19.18;63.63
64453;BME280;50813;52.654;6.766;2023-05-08T08:28:29;102110.0;;;19.54;65.69
64453;BME280;50813;52.654;6.766;2023-05-08T08:30:07;102110.0;;;19.7;64.5
64453;BME280;50813;52.654;6.766;2023-05-08T08:33:19;102108.0;;;19.81;62.03
64453;BME280;50813;52.654;6.766;2023-05-08T08:34:55;102105.0;;;19.86;62.46
64453;BME280;50813;52.654;6.766;2023-05-08T08:36:31;102105.0;;;20.14;62.83
64453;BME280;50813;52.654;6.766;2023-05-08T08:39:43;102105.0;;;20.14;62.21
64453;BME280;50813;52.654;6.766;2023-05-08T08:41:19;102105.0;;;19.84;63.1
64453;BME280;50813;52.654;6.766;2023-05-08T08:42:56;102100.0;;;20.02;63.92
64453;BME280;50813;52.654;6.766;2023-05-08T08:44:32;102105.0;;;20.46;63.58
64453;BME280;50813;52.654;6.766;2023-05-08T08:47:51;102103.0;;;20.45;63.57
64453;BME280;50813;52.654;6.766;2023-05-08T08:49:28;102103.0;;;20.56;63.45
64453;BME280;50813;52.654;6.766;2023-05-08T08:51:08;102101.0;;;20.52;62.31
64453;BME280;50813;52.654;6.766;2023-05-08T08:54:35;102099.0;;;20.68;62.66
64453;BME280;50813;52.654;6.766;2023-05-08T08:56:13;102098.0;;;20.73;60.8
64453;BME280;50813;52.654;6.766;2023-05-08T08:57:55;102095.0;;;20.73;60.0
64453;BME280;50813;52.654;6.766;2023-05-08T08:59:37;102091.0;;;20.65;61.96
64453;BME280;50813;52.654;6.766;2023-05-08T09:01:17;102094.0;;;20.8;61.27
64453;BME280;50813;52.654;6.766;2023-05-08T09:04:31;102089.0;;;20.82;60.65
64453;BME280;50813;52.654;6.766;2023-05-08T09:06:07;102081.0;;;20.55;59.55
64453;BME280;50813;52.654;6.766;2023-05-08T09:07:43;102086.0;;;20.85;60.47
64453;BME280;50813;52.654;6.766;2023-05-08T09:10:56;102086.0;;;20.9;60.08
64453;BME280;50813;52.654;6.766;2023-05-08T09:12:32;102089.0;;;20.5;60.11
64453;BME280;50813;52.654;6.766;2023-05-08T09:14:08;102086.0;;;20.69;60.11
64453;BME280;50813;52.654;6.766;2023-05-08T09:17:20;102087.0;;;20.74;61.11
64453;BME280;50813;52.654;6.766;2023-05-08T09:18:56;102089.0;;;20.69;60.04
64453;BME280;50813;52.654;6.766;2023-05-08T09:20:33;102088.0;;;20.48;62.22
64453;BME280;50813;52.654;6.766;2023-05-08T09:22:10;102085.0;;;20.71;60.02
64453;BME280;50813;52.654;6.766;2023-05-08T09:25:48;102083.0;;;20.72;60.51
64453;BME280;50813;52.654;6.766;2023-05-08T09:27:26;102083.0;;;20.58;61.33
64453;BME280;50813;52.654;6.766;2023-05-08T09:29:10;102085.0;;;20.68;60.52
64453;BME280;50813;52.654;6.766;2023-05-08T09:30:48;102084.0;;;20.75;61.13
64453;BME280;50813;52.654;6.766;2023-05-08T09:34:02;102087.0;;;20.96;61.24
64453;BME280;50813;52.654;6.766;2023-05-08T09:35:39;102084.0;;;20.88;63.79
64453;BME280;50813;52.654;6.766;2023-05-08T09:37:16;102082.0;;;21.05;62.89
64453;BME280;50813;52.654;6.766;2023-05-08T09:40:28;102081.0;;;21.19;62.54
64453;BME280;50813;52.654;6.766;2023-05-08T09:42:04;102078.0;;;21.35;61.48
64453;BME280;50813;52.654;6.766;2023-05-08T09:43:41;102080.0;;;21.39;59.71
64453;BME280;50813;52.654;6.766;2023-05-08T09:45:26;102076.0;;;21.48;60.74
64453;BME280;50813;52.654;6.766;2023-05-08T09:48:50;102080.0;;;21.53;60.87
64453;BME280;50813;52.654;6.766;2023-05-08T09:50:27;102077.0;;;21.45;61.02
64453;BME280;50813;52.654;6.766;2023-05-08T09:52:03;102077.0;;;21.43;59.58
64453;BME280;50813;52.654;6.766;2023-05-08T09:53:40;102077.0;;;21.61;60.31
64453;BME280;50813;52.654;6.766;2023-05-08T09:56:53;102072.0;;;21.75;58.68
64453;BME280;50813;52.654;6.766;2023-05-08T09:58:37;102072.0;;;21.78;58.62
64453;BME280;50813;52.654;6.766;2023-05-08T10:00:13;102080.0;;;21.82;59.25
64453;BME280;50813;52.654;6.766;2023-05-08T10:03:44;102074.0;;;21.96;60.57
64453;BME280;50813;52.654;6.766;2023-05-08T10:05:23;102072.0;;;21.92;61.13
64453;BME280;50813;52.654;6.766;2023-05-08T10:07:00;102074.0;;;21.87;60.9
64453;BME280;50813;52.654;6.766;2023-05-08T10:08:37;102078.0;;;21.79;62.1
64453;BME280;50813;52.654;6.766;2023-05-08T10:11:57;102069.0;;;21.64;59.81
64453;BME280;50813;52.654;6.766;2023-05-08T10:13:33;102066.0;;;21.55;60.6
64453;BME280;50813;52.654;6.766;2023-05-08T10:15:09;102069.0;;;21.37;62.34
64453;BME280;50813;52.654;6.766;2023-05-08T10:16:47;102069.0;;;21.57;61.64
64453;BME280;50813;52.654;6.766;2023-05-08T10:20:06;102067.0;;;21.75;62.71
64453;BME280;50813;52.654;6.766;2023-05-08T10:21:45;102060.0;;;22.0;62.07
64453;BME280;50813;52.654;6.766;2023-05-08T10:23:22;102064.0;;;22.06;62.14
64453;BME280;50813;52.654;6.766;2023-05-08T10:25:01;102068.0;;;21.72;61.1
64453;BME280;50813;52.654;6.766;2023-05-08T10:28:23;102061.0;;;21.67;65.02
64453;BME280;50813;52.654;6.766;2023-05-08T10:30:04;102057.0;;;22.14;61.4
64453;BME280;50813;52.654;6.766;2023-05-08T10:31:45;102060.0;;;22.12;62.68
64453;BME280;50813;52.654;6.766;2023-05-08T10:33:29;102062.0;;;22.08;63.14
64453;BME280;50813;52.654;6.766;2023-05-08T10:36:46;102061.0;;;21.98;61.55
64453;BME280;50813;52.654;6.766;2023-05-08T10:38:23;102058.0;;;21.8;62.68
64453;BME280;50813;52.654;6.766;2023-05-08T10:40:01;102059.0;;;22.04;62.14
64453;BME280;50813;52.654;6.766;2023-05-08T10:41:39;102055.0;;;22.2;60.91
64453;BME280;50813;52.654;6.766;2023-05-08T10:44:53;102057.0;;;22.16;60.33
64453;BME280;50813;52.654;6.766;2023-05-08T10:46:38;102060.0;;;21.84;63.41
64453;BME280;50813;52.654;6.766;2023-05-08T10:48:23;102056.0;;;21.99;61.58
64453;BME280;50813;52.654;6.766;2023-05-08T10:50:11;102052.0;;;22.28;62.86
64453;BME280;50813;52.654;6.766;2023-05-08T10:53:46;102051.0;;;22.39;60.01
64453;BME280;50813;52.654;6.766;2023-05-08T10:55:28;102049.0;;;22.43;60.97
64453;BME280;50813;52.654;6.766;2023-05-08T10:57:08;102048.0;;;22.82;60.4
64453;BME280;50813;52.654;6.766;2023-05-08T10:58:54;102049.0;;;23.0;61.57
64453;BME280;50813;52.654;6.766;2023-05-08T11:00:32;102046.0;;;22.96;61.77
64453;BME280;50813;52.654;6.766;2023-05-08T11:02:47;102051.0;;;22.92;62.61
64453;BME280;50813;52.654;6.766;2023-05-08T11:06:00;102048.0;;;22.77;61.73
64453;BME280;50813;52.654;6.766;2023-05-08T11:07:52;102046.0;;;23.0;61.15
64453;BME280;50813;52.654;6.766;2023-05-08T11:09:44;102042.0;;;23.12;62.7
64453;BME280;50813;52.654;6.766;2023-05-08T11:11:27;102043.0;;;23.5;59.4
64453;BME280;50813;52.654;6.766;2023-05-08T11:13:05;102042.0;;;23.81;60.19